sensor_id;sensor_type;location;lat;lon;timestamp;P1;durP1;ratioP1;P2;durP2;ratioP2
13349;SDS011;6744;53.190;6.576;2023-06-26T00:01:29;8.17;;;7.43;;
13349;SDS011;6744;53.190;6.576;2023-06-26T00:03:56;8.40;;;7.70;;
13349;SDS011;6744;53.190;6.576;2023-06-26T00:06:22;8.03;;;7.27;;
13349;SDS011;6744;53.190;6.576;2023-06-26T00:08:49;8.23;;;7.43;;
13349;SDS011;6744;53.190;6.576;2023-06-26T00:11:15;7.47;;;6.87;;
13349;SDS011;6744;53.190;6.576;2023-06-26T00:13:41;7.57;;;6.97;;
13349;SDS011;6744;53.190;6.576;2023-06-26T00:16:06;7.87;;;7.17;;
13349;SDS011;6744;53.190;6.576;2023-06-26T00:18:32;8.00;;;7.30;;
13349;SDS011;6744;53.190;6.576;2023-06-26T00:20:57;7.53;;;6.93;;
13349;SDS011;6744;53.190;6.576;2023-06-26T00:23:22;7.63;;;7.03;;
13349;SDS011;6744;53.190;6.576;2023-06-26T00:25:48;7.13;;;6.53;;
13349;SDS011;6744;53.190;6.576;2023-06-26T00:28:13;7.00;;;6.50;;
13349;SDS011;6744;53.190;6.576;2023-06-26T00:30:39;7.73;;;7.03;;
13349;SDS011;6744;53.190;6.576;2023-06-26T00:33:04;7.57;;;6.87;;
13349;SDS011;6744;53.190;6.576;2023-06-26T00:35:29;7.10;;;6.50;;
13349;SDS011;6744;53.190;6.576;2023-06-26T00:37:55;7.80;;;7.10;;
13349;SDS011;6744;53.190;6.576;2023-06-26T00:40:20;8.17;;;7.47;;
13349;SDS011;6744;53.190;6.576;2023-06-26T00:42:45;8.37;;;7.57;;
13349;SDS011;6744;53.190;6.576;2023-06-26T00:45:11;8.17;;;7.47;;
13349;SDS011;6744;53.190;6.576;2023-06-26T00:47:36;9.33;;;8.53;;
13349;SDS011;6744;53.190;6.576;2023-06-26T00:50:02;8.17;;;7.47;;
13349;SDS011;6744;53.190;6.576;2023-06-26T00:52:27;9.13;;;7.87;;
13349;SDS011;6744;53.190;6.576;2023-06-26T00:54:53;7.87;;;7.17;;
13349;SDS011;6744;53.190;6.576;2023-06-26T00:57:18;7.97;;;7.27;;
13349;SDS011;6744;53.190;6.576;2023-06-26T00:59:44;10.37;;;9.13;;
13349;SDS011;6744;53.190;6.576;2023-06-26T01:02:09;8.23;;;7.53;;
13349;SDS011;6744;53.190;6.576;2023-06-26T01:04:35;8.73;;;7.97;;
13349;SDS011;6744;53.190;6.576;2023-06-26T01:07:00;8.73;;;8.03;;
13349;SDS011;6744;53.190;6.576;2023-06-26T01:09:27;8.87;;;8.07;;
13349;SDS011;6744;53.190;6.576;2023-06-26T01:11:52;10.43;;;9.43;;
13349;SDS011;6744;53.190;6.576;2023-06-26T01:14:18;8.57;;;7.87;;
13349;SDS011;6744;53.190;6.576;2023-06-26T01:16:43;7.87;;;7.17;;
13349;SDS011;6744;53.190;6.576;2023-06-26T01:19:19;8.00;;;7.30;;
13349;SDS011;6744;53.190;6.576;2023-06-26T01:21:51;10.27;;;9.27;;
13349;SDS011;6744;53.190;6.576;2023-06-26T01:24:22;10.60;;;9.50;;
13349;SDS011;6744;53.190;6.576;2023-06-26T01:26:52;9.00;;;8.20;;
13349;SDS011;6744;53.190;6.576;2023-06-26T01:29:18;11.30;;;10.20;;
13349;SDS011;6744;53.190;6.576;2023-06-26T01:31:43;10.00;;;9.03;;
13349;SDS011;6744;53.190;6.576;2023-06-26T01:34:15;8.80;;;8.00;;
13349;SDS011;6744;53.190;6.576;2023-06-26T01:36:41;8.70;;;7.90;;
13349;SDS011;6744;53.190;6.576;2023-06-26T01:39:06;9.60;;;8.80;;
13349;SDS011;6744;53.190;6.576;2023-06-26T01:41:33;9.07;;;8.27;;
13349;SDS011;6744;53.190;6.576;2023-06-26T01:44:20;8.53;;;7.70;;
13349;SDS011;6744;53.190;6.576;2023-06-26T01:49:31;8.43;;;7.70;;
13349;SDS011;6744;53.190;6.576;2023-06-26T01:52:32;8.20;;;7.40;;
13349;SDS011;6744;53.190;6.576;2023-06-26T01:55:15;7.97;;;7.37;;
13349;SDS011;6744;53.190;6.576;2023-06-26T01:57:48;8.80;;;8.00;;
13349;SDS011;6744;53.190;6.576;2023-06-26T02:00:17;10.30;;;9.30;;
13349;SDS011;6744;53.190;6.576;2023-06-26T02:02:44;10.33;;;9.30;;
13349;SDS011;6744;53.190;6.576;2023-06-26T02:05:10;11.70;;;10.70;;
13349;SDS011;6744;53.190;6.576;2023-06-26T02:07:36;10.00;;;9.10;;
13349;SDS011;6744;53.190;6.576;2023-06-26T02:10:02;9.17;;;8.37;;
13349;SDS011;6744;53.190;6.576;2023-06-26T02:12:29;9.17;;;8.27;;
13349;SDS011;6744;53.190;6.576;2023-06-26T02:14:54;9.03;;;8.27;;
13349;SDS011;6744;53.190;6.576;2023-06-26T02:17:19;9.77;;;8.97;;
13349;SDS011;6744;53.190;6.576;2023-06-26T02:19:45;8.90;;;8.00;;
13349;SDS011;6744;53.190;6.576;2023-06-26T02:22:12;9.13;;;8.33;;
13349;SDS011;6744;53.190;6.576;2023-06-26T02:24:41;8.47;;;7.67;;
13349;SDS011;6744;53.190;6.576;2023-06-26T02:27:07;10.23;;;9.33;;
13349;SDS011;6744;53.190;6.576;2023-06-26T02:29:32;8.57;;;7.87;;
13349;SDS011;6744;53.190;6.576;2023-06-26T02:31:58;8.20;;;7.50;;
13349;SDS011;6744;53.190;6.576;2023-06-26T02:34:23;9.13;;;8.30;;
13349;SDS011;6744;53.190;6.576;2023-06-26T02:36:48;8.37;;;7.67;;
13349;SDS011;6744;53.190;6.576;2023-06-26T02:39:14;7.70;;;7.00;;
13349;SDS011;6744;53.190;6.576;2023-06-26T02:41:39;9.07;;;8.27;;
13349;SDS011;6744;53.190;6.576;2023-06-26T02:44:05;9.43;;;8.53;;
13349;SDS011;6744;53.190;6.576;2023-06-26T02:46:31;9.13;;;8.33;;
13349;SDS011;6744;53.190;6.576;2023-06-26T02:48:57;10.13;;;9.23;;
13349;SDS011;6744;53.190;6.576;2023-06-26T02:51:22;9.50;;;8.70;;
13349;SDS011;6744;53.190;6.576;2023-06-26T02:53:48;9.60;;;8.80;;
13349;SDS011;6744;53.190;6.576;2023-06-26T02:56:13;9.80;;;8.90;;
13349;SDS011;6744;53.190;6.576;2023-06-26T02:58:38;9.23;;;8.33;;
13349;SDS011;6744;53.190;6.576;2023-06-26T03:01:04;7.90;;;7.20;;
13349;SDS011;6744;53.190;6.576;2023-06-26T03:03:29;7.90;;;7.20;;
13349;SDS011;6744;53.190;6.576;2023-06-26T03:05:54;8.60;;;7.80;;
13349;SDS011;6744;53.190;6.576;2023-06-26T03:08:20;9.70;;;8.80;;
13349;SDS011;6744;53.190;6.576;2023-06-26T03:10:45;9.37;;;8.57;;
13349;SDS011;6744;53.190;6.576;2023-06-26T03:13:10;9.90;;;8.90;;
13349;SDS011;6744;53.190;6.576;2023-06-26T03:15:36;10.20;;;9.30;;
13349;SDS011;6744;53.190;6.576;2023-06-26T03:18:01;9.40;;;8.60;;
13349;SDS011;6744;53.190;6.576;2023-06-26T03:20:26;10.30;;;9.40;;
13349;SDS011;6744;53.190;6.576;2023-06-26T03:22:52;10.43;;;9.43;;
13349;SDS011;6744;53.190;6.576;2023-06-26T03:25:19;10.97;;;9.97;;
13349;SDS011;6744;53.190;6.576;2023-06-26T03:27:44;9.60;;;8.70;;
13349;SDS011;6744;53.190;6.576;2023-06-26T03:30:09;10.43;;;8.77;;
13349;SDS011;6744;53.190;6.576;2023-06-26T03:32:36;9.47;;;8.67;;
13349;SDS011;6744;53.190;6.576;2023-06-26T03:35:01;9.23;;;8.40;;
13349;SDS011;6744;53.190;6.576;2023-06-26T03:37:28;10.70;;;9.70;;
13349;SDS011;6744;53.190;6.576;2023-06-26T03:39:53;12.17;;;11.10;;
13349;SDS011;6744;53.190;6.576;2023-06-26T03:42:19;10.53;;;9.63;;
13349;SDS011;6744;53.190;6.576;2023-06-26T03:44:44;11.07;;;9.97;;
13349;SDS011;6744;53.190;6.576;2023-06-26T03:47:09;11.43;;;10.23;;
13349;SDS011;6744;53.190;6.576;2023-06-26T03:49:35;9.80;;;8.73;;
13349;SDS011;6744;53.190;6.576;2023-06-26T03:52:00;10.60;;;9.60;;
13349;SDS011;6744;53.190;6.576;2023-06-26T03:54:26;9.53;;;8.63;;
13349;SDS011;6744;53.190;6.576;2023-06-26T03:56:51;11.30;;;10.23;;
13349;SDS011;6744;53.190;6.576;2023-06-26T03:59:16;9.30;;;8.50;;
13349;SDS011;6744;53.190;6.576;2023-06-26T04:01:42;9.73;;;8.93;;
13349;SDS011;6744;53.190;6.576;2023-06-26T04:04:08;10.80;;;9.70;;
13349;SDS011;6744;53.190;6.576;2023-06-26T04:06:34;10.50;;;9.50;;
13349;SDS011;6744;53.190;6.576;2023-06-26T04:08:59;9.97;;;9.03;;
13349;SDS011;6744;53.190;6.576;2023-06-26T04:11:24;10.73;;;9.50;;
13349;SDS011;6744;53.190;6.576;2023-06-26T04:13:50;9.83;;;8.93;;
13349;SDS011;6744;53.190;6.576;2023-06-26T04:16:15;9.87;;;8.97;;
13349;SDS011;6744;53.190;6.576;2023-06-26T04:18:41;8.87;;;8.10;;
13349;SDS011;6744;53.190;6.576;2023-06-26T04:21:10;10.37;;;9.40;;
13349;SDS011;6744;53.190;6.576;2023-06-26T04:23:36;9.47;;;8.57;;
13349;SDS011;6744;53.190;6.576;2023-06-26T04:26:03;10.20;;;9.30;;
13349;SDS011;6744;53.190;6.576;2023-06-26T04:28:30;10.40;;;9.37;;
13349;SDS011;6744;53.190;6.576;2023-06-26T04:30:56;10.57;;;9.57;;
13349;SDS011;6744;53.190;6.576;2023-06-26T04:33:22;10.37;;;9.13;;
13349;SDS011;6744;53.190;6.576;2023-06-26T04:35:48;10.53;;;9.43;;
13349;SDS011;6744;53.190;6.576;2023-06-26T04:38:14;10.80;;;9.77;;
13349;SDS011;6744;53.190;6.576;2023-06-26T04:40:40;9.50;;;8.67;;
13349;SDS011;6744;53.190;6.576;2023-06-26T04:43:06;11.37;;;10.37;;
13349;SDS011;6744;53.190;6.576;2023-06-26T04:45:31;10.40;;;9.40;;
13349;SDS011;6744;53.190;6.576;2023-06-26T04:47:56;12.10;;;11.00;;
13349;SDS011;6744;53.190;6.576;2023-06-26T04:50:22;9.97;;;8.97;;
13349;SDS011;6744;53.190;6.576;2023-06-26T04:52:47;10.83;;;9.83;;
13349;SDS011;6744;53.190;6.576;2023-06-26T04:55:12;11.63;;;10.30;;
13349;SDS011;6744;53.190;6.576;2023-06-26T04:57:38;10.30;;;9.17;;
13349;SDS011;6744;53.190;6.576;2023-06-26T05:00:03;10.57;;;9.57;;
13349;SDS011;6744;53.190;6.576;2023-06-26T05:02:34;10.27;;;9.30;;
13349;SDS011;6744;53.190;6.576;2023-06-26T05:05:00;12.60;;;9.93;;
13349;SDS011;6744;53.190;6.576;2023-06-26T05:07:25;12.10;;;9.03;;
13349;SDS011;6744;53.190;6.576;2023-06-26T05:09:50;11.57;;;8.97;;
13349;SDS011;6744;53.190;6.576;2023-06-26T05:12:16;18.70;;;11.00;;
13349;SDS011;6744;53.190;6.576;2023-06-26T05:14:41;16.17;;;10.43;;
13349;SDS011;6744;53.190;6.576;2023-06-26T05:17:06;12.30;;;10.17;;
13349;SDS011;6744;53.190;6.576;2023-06-26T05:19:32;13.67;;;10.20;;
13349;SDS011;6744;53.190;6.576;2023-06-26T05:21:57;15.47;;;10.33;;
13349;SDS011;6744;53.190;6.576;2023-06-26T05:24:23;13.17;;;9.80;;
13349;SDS011;6744;53.190;6.576;2023-06-26T05:26:49;12.87;;;9.97;;
13349;SDS011;6744;53.190;6.576;2023-06-26T05:29:15;13.03;;;9.50;;
13349;SDS011;6744;53.190;6.576;2023-06-26T05:31:41;15.13;;;10.63;;
13349;SDS011;6744;53.190;6.576;2023-06-26T05:34:06;15.83;;;10.90;;
13349;SDS011;6744;53.190;6.576;2023-06-26T05:36:33;16.17;;;9.50;;
13349;SDS011;6744;53.190;6.576;2023-06-26T05:38:59;14.10;;;10.60;;
13349;SDS011;6744;53.190;6.576;2023-06-26T05:41:24;14.80;;;9.50;;
13349;SDS011;6744;53.190;6.576;2023-06-26T05:43:50;13.87;;;8.37;;
13349;SDS011;6744;53.190;6.576;2023-06-26T05:46:15;11.23;;;7.83;;
13349;SDS011;6744;53.190;6.576;2023-06-26T05:48:41;11.87;;;7.57;;
13349;SDS011;6744;53.190;6.576;2023-06-26T05:51:06;12.97;;;7.53;;
13349;SDS011;6744;53.190;6.576;2023-06-26T05:53:32;15.07;;;8.33;;
13349;SDS011;6744;53.190;6.576;2023-06-26T05:55:58;9.67;;;6.27;;
13349;SDS011;6744;53.190;6.576;2023-06-26T05:58:25;10.83;;;6.17;;
13349;SDS011;6744;53.190;6.576;2023-06-26T06:00:52;14.07;;;6.50;;
13349;SDS011;6744;53.190;6.576;2023-06-26T06:03:18;10.60;;;6.17;;
13349;SDS011;6744;53.190;6.576;2023-06-26T06:05:43;7.63;;;4.70;;
13349;SDS011;6744;53.190;6.576;2023-06-26T06:08:09;11.00;;;5.30;;
13349;SDS011;6744;53.190;6.576;2023-06-26T06:10:34;10.17;;;5.20;;
13349;SDS011;6744;53.190;6.576;2023-06-26T06:13:00;13.97;;;5.63;;
13349;SDS011;6744;53.190;6.576;2023-06-26T06:15:25;10.90;;;5.47;;
13349;SDS011;6744;53.190;6.576;2023-06-26T06:17:50;14.23;;;5.60;;
13349;SDS011;6744;53.190;6.576;2023-06-26T06:20:16;11.53;;;5.07;;
13349;SDS011;6744;53.190;6.576;2023-06-26T06:22:44;13.53;;;4.97;;
13349;SDS011;6744;53.190;6.576;2023-06-26T06:25:10;11.73;;;5.20;;
13349;SDS011;6744;53.190;6.576;2023-06-26T06:27:35;10.47;;;4.60;;
13349;SDS011;6744;53.190;6.576;2023-06-26T06:30:00;10.37;;;4.53;;
13349;SDS011;6744;53.190;6.576;2023-06-26T06:32:26;10.67;;;4.20;;
13349;SDS011;6744;53.190;6.576;2023-06-26T06:34:51;8.60;;;4.07;;
13349;SDS011;6744;53.190;6.576;2023-06-26T06:37:16;11.07;;;4.57;;
13349;SDS011;6744;53.190;6.576;2023-06-26T06:39:42;11.90;;;4.37;;
13349;SDS011;6744;53.190;6.576;2023-06-26T06:42:07;12.33;;;4.20;;
13349;SDS011;6744;53.190;6.576;2023-06-26T06:44:33;11.07;;;3.97;;
13349;SDS011;6744;53.190;6.576;2023-06-26T06:46:58;8.83;;;3.30;;
13349;SDS011;6744;53.190;6.576;2023-06-26T06:49:24;8.17;;;3.20;;
13349;SDS011;6744;53.190;6.576;2023-06-26T06:51:49;8.50;;;3.37;;
13349;SDS011;6744;53.190;6.576;2023-06-26T06:54:15;10.23;;;3.43;;
13349;SDS011;6744;53.190;6.576;2023-06-26T06:56:41;9.20;;;3.43;;
13349;SDS011;6744;53.190;6.576;2023-06-26T06:59:06;8.33;;;3.13;;
13349;SDS011;6744;53.190;6.576;2023-06-26T07:01:31;9.27;;;3.70;;
13349;SDS011;6744;53.190;6.576;2023-06-26T07:03:57;9.80;;;3.67;;
13349;SDS011;6744;53.190;6.576;2023-06-26T07:06:22;7.90;;;3.60;;
13349;SDS011;6744;53.190;6.576;2023-06-26T07:08:48;8.57;;;3.23;;
13349;SDS011;6744;53.190;6.576;2023-06-26T07:11:13;7.27;;;2.90;;
13349;SDS011;6744;53.190;6.576;2023-06-26T07:13:38;6.83;;;2.70;;
13349;SDS011;6744;53.190;6.576;2023-06-26T07:16:04;5.33;;;2.40;;
13349;SDS011;6744;53.190;6.576;2023-06-26T07:18:29;5.93;;;2.80;;
13349;SDS011;6744;53.190;6.576;2023-06-26T07:20:55;5.07;;;2.43;;
13349;SDS011;6744;53.190;6.576;2023-06-26T07:23:20;5.07;;;2.00;;
13349;SDS011;6744;53.190;6.576;2023-06-26T07:25:45;6.10;;;2.60;;
13349;SDS011;6744;53.190;6.576;2023-06-26T07:28:11;4.57;;;2.40;;
13349;SDS011;6744;53.190;6.576;2023-06-26T07:30:36;6.17;;;2.47;;
13349;SDS011;6744;53.190;6.576;2023-06-26T07:33:02;5.20;;;2.20;;
13349;SDS011;6744;53.190;6.576;2023-06-26T07:35:27;6.40;;;2.40;;
13349;SDS011;6744;53.190;6.576;2023-06-26T07:37:52;7.63;;;2.10;;
13349;SDS011;6744;53.190;6.576;2023-06-26T07:40:18;5.80;;;2.27;;
13349;SDS011;6744;53.190;6.576;2023-06-26T07:42:43;5.40;;;2.17;;
13349;SDS011;6744;53.190;6.576;2023-06-26T07:45:09;10.67;;;2.60;;
13349;SDS011;6744;53.190;6.576;2023-06-26T07:47:37;3.43;;;2.07;;
13349;SDS011;6744;53.190;6.576;2023-06-26T07:50:03;5.90;;;2.17;;
13349;SDS011;6744;53.190;6.576;2023-06-26T07:52:29;5.63;;;1.90;;
13349;SDS011;6744;53.190;6.576;2023-06-26T07:54:57;4.70;;;1.80;;
13349;SDS011;6744;53.190;6.576;2023-06-26T07:57:23;5.43;;;1.80;;
13349;SDS011;6744;53.190;6.576;2023-06-26T07:59:48;4.03;;;1.80;;
13349;SDS011;6744;53.190;6.576;2023-06-26T08:02:13;6.17;;;1.80;;
13349;SDS011;6744;53.190;6.576;2023-06-26T08:04:39;3.57;;;1.70;;
13349;SDS011;6744;53.190;6.576;2023-06-26T08:07:04;5.03;;;1.83;;
13349;SDS011;6744;53.190;6.576;2023-06-26T08:09:30;3.43;;;1.67;;
13349;SDS011;6744;53.190;6.576;2023-06-26T08:11:56;5.80;;;2.00;;
13349;SDS011;6744;53.190;6.576;2023-06-26T08:14:21;5.07;;;1.90;;
13349;SDS011;6744;53.190;6.576;2023-06-26T08:16:48;4.43;;;2.10;;
13349;SDS011;6744;53.190;6.576;2023-06-26T08:19:14;5.43;;;1.67;;
13349;SDS011;6744;53.190;6.576;2023-06-26T08:21:43;5.47;;;2.10;;
13349;SDS011;6744;53.190;6.576;2023-06-26T08:24:09;4.73;;;2.13;;
13349;SDS011;6744;53.190;6.576;2023-06-26T08:26:35;4.10;;;2.00;;
13349;SDS011;6744;53.190;6.576;2023-06-26T08:29:01;4.63;;;1.90;;
13349;SDS011;6744;53.190;6.576;2023-06-26T08:31:32;4.07;;;2.10;;
13349;SDS011;6744;53.190;6.576;2023-06-26T08:33:59;5.57;;;2.00;;
13349;SDS011;6744;53.190;6.576;2023-06-26T08:36:25;4.90;;;1.73;;
13349;SDS011;6744;53.190;6.576;2023-06-26T08:38:50;4.53;;;1.90;;
13349;SDS011;6744;53.190;6.576;2023-06-26T08:41:15;3.23;;;1.87;;
13349;SDS011;6744;53.190;6.576;2023-06-26T08:43:41;4.10;;;2.17;;
13349;SDS011;6744;53.190;6.576;2023-06-26T08:46:07;6.13;;;2.03;;
13349;SDS011;6744;53.190;6.576;2023-06-26T08:48:32;4.80;;;2.43;;
13349;SDS011;6744;53.190;6.576;2023-06-26T08:51:00;5.20;;;2.17;;
13349;SDS011;6744;53.190;6.576;2023-06-26T08:56:17;6.00;;;2.33;;
13349;SDS011;6744;53.190;6.576;2023-06-26T08:58:45;3.37;;;1.90;;
13349;SDS011;6744;53.190;6.576;2023-06-26T09:01:11;3.13;;;1.80;;
13349;SDS011;6744;53.190;6.576;2023-06-26T09:03:36;5.43;;;2.30;;
13349;SDS011;6744;53.190;6.576;2023-06-26T09:06:02;2.80;;;1.90;;
13349;SDS011;6744;53.190;6.576;2023-06-26T09:08:27;3.30;;;1.70;;
13349;SDS011;6744;53.190;6.576;2023-06-26T09:10:52;4.53;;;2.40;;
13349;SDS011;6744;53.190;6.576;2023-06-26T09:13:18;5.87;;;2.23;;
13349;SDS011;6744;53.190;6.576;2023-06-26T09:15:44;3.63;;;2.00;;
13349;SDS011;6744;53.190;6.576;2023-06-26T09:18:11;4.50;;;2.17;;
13349;SDS011;6744;53.190;6.576;2023-06-26T09:20:37;5.87;;;2.20;;
13349;SDS011;6744;53.190;6.576;2023-06-26T09:23:02;4.27;;;2.20;;
13349;SDS011;6744;53.190;6.576;2023-06-26T09:25:28;4.97;;;2.27;;
13349;SDS011;6744;53.190;6.576;2023-06-26T09:27:54;5.57;;;2.07;;
13349;SDS011;6744;53.190;6.576;2023-06-26T09:30:20;3.63;;;2.17;;
13349;SDS011;6744;53.190;6.576;2023-06-26T09:32:46;3.57;;;2.20;;
13349;SDS011;6744;53.190;6.576;2023-06-26T09:35:12;3.47;;;2.07;;
13349;SDS011;6744;53.190;6.576;2023-06-26T09:37:37;3.67;;;2.07;;
13349;SDS011;6744;53.190;6.576;2023-06-26T09:40:03;5.63;;;2.20;;
13349;SDS011;6744;53.190;6.576;2023-06-26T09:42:33;4.37;;;2.30;;
13349;SDS011;6744;53.190;6.576;2023-06-26T09:44:59;3.77;;;1.90;;
13349;SDS011;6744;53.190;6.576;2023-06-26T09:47:24;3.70;;;2.17;;
13349;SDS011;6744;53.190;6.576;2023-06-26T09:49:50;4.00;;;1.90;;
13349;SDS011;6744;53.190;6.576;2023-06-26T09:52:17;4.40;;;2.37;;
13349;SDS011;6744;53.190;6.576;2023-06-26T09:54:43;3.03;;;2.10;;
13349;SDS011;6744;53.190;6.576;2023-06-26T09:57:17;5.20;;;2.70;;
13349;SDS011;6744;53.190;6.576;2023-06-26T09:59:44;4.23;;;2.30;;
13349;SDS011;6744;53.190;6.576;2023-06-26T10:02:12;4.37;;;2.13;;
13349;SDS011;6744;53.190;6.576;2023-06-26T10:04:38;4.97;;;2.80;;
13349;SDS011;6744;53.190;6.576;2023-06-26T10:07:08;3.10;;;2.23;;
13349;SDS011;6744;53.190;6.576;2023-06-26T10:09:37;4.10;;;2.13;;
13349;SDS011;6744;53.190;6.576;2023-06-26T10:12:10;3.67;;;2.20;;
13349;SDS011;6744;53.190;6.576;2023-06-26T10:14:39;3.77;;;2.10;;
13349;SDS011;6744;53.190;6.576;2023-06-26T10:17:10;4.57;;;2.47;;
13349;SDS011;6744;53.190;6.576;2023-06-26T10:19:37;6.60;;;2.43;;
13349;SDS011;6744;53.190;6.576;2023-06-26T10:22:03;3.57;;;2.17;;
13349;SDS011;6744;53.190;6.576;2023-06-26T10:24:29;3.33;;;2.23;;
13349;SDS011;6744;53.190;6.576;2023-06-26T10:27:04;4.63;;;2.53;;
13349;SDS011;6744;53.190;6.576;2023-06-26T10:29:43;4.87;;;2.27;;
13349;SDS011;6744;53.190;6.576;2023-06-26T10:32:10;4.83;;;2.40;;
13349;SDS011;6744;53.190;6.576;2023-06-26T10:34:36;4.27;;;2.43;;
13349;SDS011;6744;53.190;6.576;2023-06-26T10:37:02;5.07;;;2.53;;
13349;SDS011;6744;53.190;6.576;2023-06-26T10:42:14;4.53;;;2.60;;
13349;SDS011;6744;53.190;6.576;2023-06-26T10:44:42;4.97;;;2.47;;
13349;SDS011;6744;53.190;6.576;2023-06-26T10:47:11;4.20;;;2.73;;
13349;SDS011;6744;53.190;6.576;2023-06-26T10:49:54;5.47;;;2.90;;
13349;SDS011;6744;53.190;6.576;2023-06-26T10:52:20;5.10;;;3.03;;
13349;SDS011;6744;53.190;6.576;2023-06-26T10:54:45;5.63;;;2.90;;
13349;SDS011;6744;53.190;6.576;2023-06-26T10:57:10;4.83;;;2.63;;
13349;SDS011;6744;53.190;6.576;2023-06-26T10:59:39;5.70;;;2.50;;
13349;SDS011;6744;53.190;6.576;2023-06-26T11:02:05;3.23;;;2.10;;
13349;SDS011;6744;53.190;6.576;2023-06-26T11:04:46;5.33;;;2.57;;
13349;SDS011;6744;53.190;6.576;2023-06-26T11:07:19;5.63;;;2.20;;
13349;SDS011;6744;53.190;6.576;2023-06-26T11:10:05;5.00;;;2.47;;
13349;SDS011;6744;53.190;6.576;2023-06-26T11:15:12;4.50;;;2.00;;
13349;SDS011;6744;53.190;6.576;2023-06-26T11:17:39;4.47;;;1.90;;
13349;SDS011;6744;53.190;6.576;2023-06-26T11:20:05;3.73;;;1.60;;
13349;SDS011;6744;53.190;6.576;2023-06-26T11:22:34;5.37;;;1.57;;
13349;SDS011;6744;53.190;6.576;2023-06-26T11:25:00;5.67;;;2.20;;
13349;SDS011;6744;53.190;6.576;2023-06-26T11:30:07;4.50;;;2.27;;
13349;SDS011;6744;53.190;6.576;2023-06-26T11:32:34;4.43;;;2.10;;
13349;SDS011;6744;53.190;6.576;2023-06-26T11:34:59;7.03;;;1.70;;
13349;SDS011;6744;53.190;6.576;2023-06-26T11:37:25;4.97;;;1.83;;
13349;SDS011;6744;53.190;6.576;2023-06-26T11:39:50;3.80;;;1.53;;
13349;SDS011;6744;53.190;6.576;2023-06-26T11:42:17;4.53;;;1.83;;
13349;SDS011;6744;53.190;6.576;2023-06-26T11:44:43;4.97;;;1.70;;
13349;SDS011;6744;53.190;6.576;2023-06-26T11:47:15;4.63;;;1.70;;
13349;SDS011;6744;53.190;6.576;2023-06-26T11:49:42;3.40;;;1.87;;
13349;SDS011;6744;53.190;6.576;2023-06-26T11:52:08;4.30;;;1.50;;
13349;SDS011;6744;53.190;6.576;2023-06-26T11:54:33;4.30;;;1.50;;
13349;SDS011;6744;53.190;6.576;2023-06-26T11:56:59;3.07;;;1.57;;
13349;SDS011;6744;53.190;6.576;2023-06-26T11:59:34;3.03;;;1.33;;
13349;SDS011;6744;53.190;6.576;2023-06-26T12:02:04;2.80;;;1.30;;
13349;SDS011;6744;53.190;6.576;2023-06-26T12:04:30;5.70;;;1.70;;
13349;SDS011;6744;53.190;6.576;2023-06-26T12:06:56;4.60;;;1.73;;
13349;SDS011;6744;53.190;6.576;2023-06-26T12:09:22;5.77;;;1.70;;
13349;SDS011;6744;53.190;6.576;2023-06-26T12:11:48;5.30;;;1.83;;
13349;SDS011;6744;53.190;6.576;2023-06-26T12:14:17;4.47;;;1.63;;
13349;SDS011;6744;53.190;6.576;2023-06-26T12:16:44;4.67;;;1.83;;
13349;SDS011;6744;53.190;6.576;2023-06-26T12:19:10;4.60;;;1.60;;
13349;SDS011;6744;53.190;6.576;2023-06-26T12:24:10;4.00;;;1.77;;
13349;SDS011;6744;53.190;6.576;2023-06-26T12:26:40;4.20;;;1.67;;
13349;SDS011;6744;53.190;6.576;2023-06-26T12:29:09;4.73;;;2.13;;
13349;SDS011;6744;53.190;6.576;2023-06-26T12:31:39;5.67;;;1.70;;
13349;SDS011;6744;53.190;6.576;2023-06-26T12:34:08;3.23;;;1.60;;
13349;SDS011;6744;53.190;6.576;2023-06-26T12:36:42;4.60;;;1.70;;
13349;SDS011;6744;53.190;6.576;2023-06-26T12:39:15;3.13;;;1.70;;
13349;SDS011;6744;53.190;6.576;2023-06-26T12:44:21;7.07;;;1.83;;
13349;SDS011;6744;53.190;6.576;2023-06-26T12:46:53;4.97;;;1.90;;
13349;SDS011;6744;53.190;6.576;2023-06-26T12:49:29;4.93;;;1.97;;
13349;SDS011;6744;53.190;6.576;2023-06-26T12:52:05;4.67;;;1.63;;
13349;SDS011;6744;53.190;6.576;2023-06-26T12:54:35;5.03;;;1.87;;
13349;SDS011;6744;53.190;6.576;2023-06-26T12:57:01;3.93;;;1.40;;
13349;SDS011;6744;53.190;6.576;2023-06-26T12:59:28;4.23;;;1.50;;
13349;SDS011;6744;53.190;6.576;2023-06-26T13:01:54;2.90;;;1.30;;
13349;SDS011;6744;53.190;6.576;2023-06-26T13:04:19;5.47;;;1.93;;
13349;SDS011;6744;53.190;6.576;2023-06-26T13:06:45;3.07;;;1.50;;
13349;SDS011;6744;53.190;6.576;2023-06-26T13:09:12;5.87;;;2.07;;
13349;SDS011;6744;53.190;6.576;2023-06-26T13:11:37;5.47;;;1.67;;
13349;SDS011;6744;53.190;6.576;2023-06-26T13:14:03;3.90;;;1.40;;
13349;SDS011;6744;53.190;6.576;2023-06-26T13:16:29;4.93;;;1.70;;
13349;SDS011;6744;53.190;6.576;2023-06-26T13:18:54;4.40;;;1.80;;
13349;SDS011;6744;53.190;6.576;2023-06-26T13:21:21;7.03;;;1.80;;
13349;SDS011;6744;53.190;6.576;2023-06-26T13:23:46;5.50;;;1.90;;
13349;SDS011;6744;53.190;6.576;2023-06-26T13:26:12;4.87;;;1.70;;
13349;SDS011;6744;53.190;6.576;2023-06-26T13:28:37;5.37;;;1.50;;
13349;SDS011;6744;53.190;6.576;2023-06-26T13:31:03;3.87;;;1.40;;
13349;SDS011;6744;53.190;6.576;2023-06-26T13:33:28;4.07;;;1.50;;
13349;SDS011;6744;53.190;6.576;2023-06-26T13:35:55;3.07;;;1.40;;
13349;SDS011;6744;53.190;6.576;2023-06-26T13:38:20;3.30;;;1.50;;
13349;SDS011;6744;53.190;6.576;2023-06-26T13:40:54;2.23;;;1.13;;
13349;SDS011;6744;53.190;6.576;2023-06-26T13:43:22;4.90;;;1.30;;
13349;SDS011;6744;53.190;6.576;2023-06-26T13:45:48;6.27;;;1.70;;
13349;SDS011;6744;53.190;6.576;2023-06-26T13:48:16;5.17;;;1.50;;
13349;SDS011;6744;53.190;6.576;2023-06-26T13:50:41;4.03;;;1.60;;
13349;SDS011;6744;53.190;6.576;2023-06-26T13:53:06;4.63;;;1.70;;
13349;SDS011;6744;53.190;6.576;2023-06-26T13:55:32;5.27;;;2.10;;
13349;SDS011;6744;53.190;6.576;2023-06-26T13:57:59;3.23;;;1.40;;
13349;SDS011;6744;53.190;6.576;2023-06-26T14:00:24;4.07;;;1.67;;
13349;SDS011;6744;53.190;6.576;2023-06-26T14:02:50;3.47;;;1.77;;
13349;SDS011;6744;53.190;6.576;2023-06-26T14:05:16;3.83;;;1.77;;
13349;SDS011;6744;53.190;6.576;2023-06-26T14:07:43;4.17;;;1.80;;
13349;SDS011;6744;53.190;6.576;2023-06-26T14:10:09;5.13;;;1.70;;
13349;SDS011;6744;53.190;6.576;2023-06-26T14:12:34;5.07;;;2.00;;
13349;SDS011;6744;53.190;6.576;2023-06-26T14:15:00;4.10;;;1.87;;
13349;SDS011;6744;53.190;6.576;2023-06-26T14:17:25;3.73;;;1.47;;
13349;SDS011;6744;53.190;6.576;2023-06-26T14:19:54;4.33;;;1.90;;
13349;SDS011;6744;53.190;6.576;2023-06-26T14:22:19;5.47;;;2.10;;
13349;SDS011;6744;53.190;6.576;2023-06-26T14:24:44;5.70;;;1.87;;
13349;SDS011;6744;53.190;6.576;2023-06-26T14:27:10;4.43;;;1.50;;
13349;SDS011;6744;53.190;6.576;2023-06-26T14:29:36;2.40;;;1.50;;
13349;SDS011;6744;53.190;6.576;2023-06-26T14:32:01;2.60;;;1.13;;
13349;SDS011;6744;53.190;6.576;2023-06-26T14:34:27;2.87;;;1.40;;
13349;SDS011;6744;53.190;6.576;2023-06-26T14:36:53;2.97;;;1.30;;
13349;SDS011;6744;53.190;6.576;2023-06-26T14:39:18;3.60;;;1.30;;
13349;SDS011;6744;53.190;6.576;2023-06-26T14:41:43;3.53;;;1.50;;
13349;SDS011;6744;53.190;6.576;2023-06-26T14:44:09;5.13;;;1.60;;
13349;SDS011;6744;53.190;6.576;2023-06-26T14:46:36;5.67;;;1.73;;
13349;SDS011;6744;53.190;6.576;2023-06-26T14:49:02;4.30;;;1.80;;
13349;SDS011;6744;53.190;6.576;2023-06-26T14:51:28;3.17;;;1.50;;
13349;SDS011;6744;53.190;6.576;2023-06-26T14:53:53;2.83;;;1.23;;
13349;SDS011;6744;53.190;6.576;2023-06-26T14:56:19;6.47;;;1.53;;
13349;SDS011;6744;53.190;6.576;2023-06-26T14:58:44;3.27;;;1.00;;
13349;SDS011;6744;53.190;6.576;2023-06-26T15:01:12;5.70;;;1.60;;
13349;SDS011;6744;53.190;6.576;2023-06-26T15:03:40;5.77;;;1.80;;
13349;SDS011;6744;53.190;6.576;2023-06-26T15:06:06;8.33;;;2.17;;
13349;SDS011;6744;53.190;6.576;2023-06-26T15:08:31;3.97;;;2.10;;
13349;SDS011;6744;53.190;6.576;2023-06-26T15:10:56;4.87;;;1.67;;
13349;SDS011;6744;53.190;6.576;2023-06-26T15:13:22;6.97;;;1.97;;